METAR Data
IDs: Format: Raw Decoded Include TAF

Data at: 0758 UTC 09 Apr 2020

METAR for:KEDC (Austin/Executive Arp, TX, US)
Text:KEDC 090755Z AUTO 00000KT 3SM BR CLR 23/23 A2988 RMK AO2
Temperature: 23.0°C ( 73°F)
Dewpoint: 23.0°C ( 73°F) [RH = 100%]
Pressure (altimeter):29.88 inches Hg (1011.9 mb)
Winds:calm
Visibility: 3 sm ( 5 km)
Ceiling:at least 12,000 feet AGL
Clouds:sky clear below 12,000 feet AGL
Weather:BR (mist)
QC Flag:automated observation with no human augmentation